createdAt,value
2022-10-03T00:01:34.333Z,0.70
2022-10-03T00:04:34.508Z,0.80
2022-10-03T00:07:48.232Z,0.90
2022-10-03T00:10:52.247Z,1.20
2022-10-03T00:14:01.643Z,1.13
2022-10-03T00:16:56.248Z,1.13
2022-10-03T00:19:54.430Z,1.20
2022-10-03T00:22:52.152Z,1.33
2022-10-03T00:25:58.061Z,1.20
2022-10-03T00:29:02.003Z,0.88
2022-10-03T00:32:26.845Z,1.00
2022-10-03T00:35:29.028Z,0.93
2022-10-03T00:38:42.185Z,0.80
2022-10-03T00:41:46.479Z,0.80
2022-10-03T00:44:59.128Z,0.80
2022-10-03T00:48:03.589Z,0.80
2022-10-03T00:50:58.919Z,0.93
2022-10-03T00:53:51.013Z,1.10
2022-10-03T00:56:58.043Z,1.92
2022-10-03T01:00:08.232Z,1.02
2022-10-03T01:03:12.500Z,0.90
2022-10-03T01:06:36.105Z,1.10
2022-10-03T01:09:54.288Z,1.00
2022-10-03T01:13:09.689Z,0.90
2022-10-03T01:16:07.704Z,1.02
2022-10-03T01:18:56.810Z,0.88
2022-10-03T01:21:57.104Z,0.90
2022-10-03T01:28:22.486Z,0.80
2022-10-03T01:31:13.799Z,12.38
2022-10-03T01:34:11.523Z,2.67
2022-10-03T01:37:29.261Z,1.30
2022-10-03T01:40:26.144Z,1.20
2022-10-03T01:43:21.156Z,1.30
2022-10-03T01:46:10.445Z,1.17
2022-10-03T01:49:18.425Z,1.02
2022-10-03T01:52:26.092Z,1.20
2022-10-03T01:55:45.066Z,1.30
2022-10-03T01:58:47.715Z,1.23
2022-10-03T02:01:55.726Z,1.17
2022-10-03T02:04:47.150Z,1.23
2022-10-03T02:07:40.982Z,1.40
2022-10-03T02:10:50.901Z,1.20
2022-10-03T02:13:43.078Z,1.67
2022-10-03T02:16:53.736Z,1.20
2022-10-03T02:19:48.396Z,1.33
2022-10-03T02:22:42.534Z,1.20
2022-10-03T02:26:12.047Z,1.75
2022-10-03T02:29:12.499Z,1.50
2022-10-03T02:32:10.488Z,1.58
2022-10-03T02:35:28.507Z,2.00
2022-10-03T02:38:17.831Z,1.90
2022-10-03T02:41:20.300Z,2.20
2022-10-03T02:44:43.651Z,2.92
2022-10-03T02:47:52.688Z,3.38
2022-10-03T02:51:14.512Z,2.88
2022-10-03T02:54:38.258Z,2.40
2022-10-03T02:57:47.156Z,2.15
2022-10-03T03:01:00.574Z,2.47
2022-10-03T03:03:58.325Z,2.40
2022-10-03T03:07:16.572Z,2.80
2022-10-03T03:10:28.279Z,3.00
2022-10-03T03:13:39.045Z,2.42
2022-10-03T03:16:39.456Z,2.53
2022-10-03T03:19:37.106Z,2.88
2022-10-03T03:22:44.786Z,3.10
2022-10-03T03:26:01.343Z,2.67
2022-10-03T03:28:55.900Z,3.00
2022-10-03T03:32:02.136Z,3.05
2022-10-03T03:35:01.136Z,2.70
2022-10-03T03:38:08.164Z,2.75
2022-10-03T03:41:09.063Z,2.50
2022-10-03T03:43:57.350Z,2.30
2022-10-03T03:47:12.333Z,2.28
2022-10-03T03:50:00.589Z,3.53
2022-10-03T03:53:29.071Z,2.70
2022-10-03T03:56:49.356Z,2.22
2022-10-03T03:59:51.284Z,2.38
2022-10-03T04:02:51.080Z,3.53
2022-10-03T04:05:55.037Z,2.55
2022-10-03T04:09:03.894Z,2.60
2022-10-03T04:12:16.197Z,3.50
2022-10-03T04:15:40.135Z,3.20
2022-10-03T04:19:12.733Z,2.38
2022-10-03T04:22:32.857Z,2.60
2022-10-03T04:25:57.658Z,2.47
2022-10-03T04:29:08.182Z,2.58
2022-10-03T04:32:33.630Z,2.42
2022-10-03T04:35:29.302Z,2.65
2022-10-03T04:38:44.316Z,2.70
2022-10-03T04:41:50.881Z,2.47
2022-10-03T04:45:02.136Z,2.65
2022-10-03T04:47:59.743Z,2.40
2022-10-03T04:51:04.322Z,2.17
2022-10-03T04:54:22.016Z,2.55
2022-10-03T04:57:41.415Z,2.67
2022-10-03T05:00:36.851Z,2.38
2022-10-03T05:03:54.336Z,1.60
2022-10-03T05:07:16.165Z,1.55
2022-10-03T05:10:25.292Z,2.00
2022-10-03T05:13:51.478Z,2.10
2022-10-03T05:16:55.658Z,2.50
2022-10-03T05:19:53.840Z,2.50
2022-10-03T05:22:52.507Z,2.47
2022-10-03T05:26:24.709Z,2.38
2022-10-03T05:29:16.229Z,2.13
2022-10-03T05:32:05.063Z,2.50
2022-10-03T05:35:17.781Z,2.38
2022-10-03T05:38:42.803Z,2.80
2022-10-03T05:41:36.555Z,2.45
2022-10-03T05:44:41.849Z,2.25
2022-10-03T05:47:58.343Z,2.55
2022-10-03T05:51:13.227Z,3.00
2022-10-03T05:54:29.596Z,2.40
2022-10-03T05:57:36.599Z,2.40
2022-10-03T06:00:50.798Z,2.47
2022-10-03T06:04:12.688Z,2.80
2022-10-03T06:07:28.026Z,2.60
2022-10-03T06:10:39.832Z,2.45
2022-10-03T06:13:37.952Z,2.67
2022-10-03T06:16:43.762Z,2.20
2022-10-03T06:19:52.475Z,2.50
2022-10-03T06:23:02.461Z,2.55
2022-10-03T06:26:32.434Z,2.45
2022-10-03T06:29:45.272Z,2.38
2022-10-03T06:33:10.458Z,2.70
2022-10-03T06:36:27.387Z,2.65
2022-10-03T06:39:34.752Z,2.33
2022-10-03T06:42:32.626Z,2.60
2022-10-03T06:45:50.687Z,3.83
2022-10-03T06:49:06.450Z,4.60
2022-10-03T06:52:21.607Z,5.10
2022-10-03T06:55:36.244Z,4.45
2022-10-03T06:58:43.296Z,4.68
2022-10-03T07:01:56.729Z,4.50
2022-10-03T07:05:19.728Z,5.47
2022-10-03T07:08:32.354Z,5.15
2022-10-03T07:11:46.800Z,5.32
2022-10-03T07:14:55.336Z,4.95
2022-10-03T07:18:14.512Z,5.13
2022-10-03T07:21:28.350Z,4.90
2022-10-03T07:24:20.032Z,5.10
2022-10-03T07:27:48.693Z,5.13
2022-10-03T07:30:48.445Z,5.03
2022-10-03T07:33:39.973Z,5.40
2022-10-03T07:36:50.267Z,5.45
2022-10-03T07:43:00.142Z,4.60
2022-10-03T07:46:04.370Z,6.60
2022-10-03T07:49:16.235Z,8.27
2022-10-03T07:52:20.133Z,6.75
2022-10-03T07:55:36.216Z,6.35
2022-10-03T07:58:37.711Z,6.55
2022-10-03T08:01:26.563Z,6.30
2022-10-03T08:04:50.649Z,7.20
2022-10-03T08:08:10.162Z,5.82
2022-10-03T08:11:10.835Z,6.93
2022-10-03T08:14:14.460Z,6.57
2022-10-03T08:17:28.285Z,6.03
2022-10-03T08:20:45.766Z,5.15
2022-10-03T08:24:15.687Z,5.13
2022-10-03T08:28:00.385Z,4.82
2022-10-03T08:31:04.303Z,4.57
2022-10-03T08:34:08.315Z,4.40
2022-10-03T08:37:12.150Z,4.72
2022-10-03T08:40:00.597Z,4.60
2022-10-03T08:43:10.874Z,4.55
2022-10-03T08:46:24.786Z,4.10
2022-10-03T08:49:29.518Z,4.50
2022-10-03T08:52:56.263Z,4.07
2022-10-03T08:56:10.635Z,3.95
2022-10-03T08:59:09.361Z,4.03
2022-10-03T09:02:31.421Z,4.63
2022-10-03T09:05:58.984Z,4.43
2022-10-03T09:08:51.045Z,3.50
2022-10-03T09:11:55.660Z,3.45
2022-10-03T09:15:01.681Z,2.72
2022-10-03T09:17:50.230Z,3.53
2022-10-03T09:21:13.257Z,4.10
2022-10-03T09:24:23.738Z,2.55
2022-10-03T09:27:43.474Z,2.70
2022-10-03T09:30:44.273Z,3.20
2022-10-03T09:33:51.541Z,3.25
2022-10-03T09:36:40.406Z,3.35
2022-10-03T09:39:47.977Z,3.10
2022-10-03T09:42:56.269Z,2.83
2022-10-03T09:46:12.670Z,2.88
2022-10-03T09:49:35.846Z,2.90
2022-10-03T09:52:56.844Z,3.17
2022-10-03T09:56:01.789Z,2.58
2022-10-03T09:59:19.001Z,2.90
2022-10-03T10:02:23.333Z,2.83
2022-10-03T10:05:36.963Z,2.38
2022-10-03T10:08:22.220Z,2.25
2022-10-03T10:11:32.997Z,2.00
2022-10-03T10:14:29.996Z,1.90
2022-10-03T10:17:26.200Z,2.88
2022-10-03T10:20:39.734Z,2.38
2022-10-03T10:23:31.127Z,2.05
2022-10-03T10:26:38.118Z,2.10
2022-10-03T10:29:35.190Z,1.92
2022-10-03T10:32:35.688Z,2.15
2022-10-03T10:35:40.332Z,4.15
2022-10-03T10:39:00.171Z,4.15
2022-10-03T10:42:03.958Z,3.13
2022-10-03T10:45:23.223Z,2.75
2022-10-03T10:48:45.692Z,3.13
2022-10-03T10:51:49.883Z,3.15
2022-10-03T10:54:56.800Z,3.65
2022-10-03T10:58:07.875Z,3.70
2022-10-03T11:01:31.250Z,3.70
2022-10-03T11:04:47.355Z,3.65
2022-10-03T11:07:58.293Z,3.70
2022-10-03T11:10:52.374Z,3.70
2022-10-03T11:14:03.499Z,4.40
2022-10-03T11:17:04.234Z,3.50
2022-10-03T11:20:10.201Z,3.65
2022-10-03T11:23:23.603Z,3.70
2022-10-03T11:26:30.561Z,3.85
2022-10-03T11:29:19.192Z,2.75
2022-10-03T11:32:26.060Z,3.10
2022-10-03T11:35:48.405Z,2.92
2022-10-03T11:39:08.626Z,3.05
2022-10-03T11:42:19.560Z,2.88
2022-10-03T11:45:14.966Z,3.60
2022-10-03T11:48:30.331Z,3.65
2022-10-03T11:51:22.845Z,4.00
2022-10-03T11:54:30.405Z,4.10
2022-10-03T11:57:37.872Z,3.90
2022-10-03T12:00:24.009Z,3.03
2022-10-03T12:03:26.383Z,3.40
2022-10-03T12:06:43.836Z,3.88
2022-10-03T12:09:35.165Z,4.05
2022-10-03T12:12:33.134Z,3.55
2022-10-03T12:15:40.549Z,3.40
2022-10-03T12:18:42.800Z,3.90
2022-10-03T12:21:43.910Z,4.43
2022-10-03T12:24:33.771Z,4.72
2022-10-03T12:27:39.029Z,3.55
2022-10-03T12:30:27.570Z,4.30
2022-10-03T12:33:28.332Z,4.60
2022-10-03T12:36:19.913Z,4.88
2022-10-03T12:39:14.653Z,4.40
2022-10-03T12:42:22.929Z,3.85
2022-10-03T12:45:36.335Z,4.43
2022-10-03T12:48:56.237Z,4.57
2022-10-03T12:51:56.250Z,5.78
2022-10-03T12:57:46.400Z,5.68
2022-10-03T13:00:46.080Z,5.78
2022-10-03T13:03:51.998Z,4.82
2022-10-03T13:07:02.715Z,4.95
2022-10-03T13:10:21.330Z,4.85
2022-10-03T13:13:32.092Z,4.70
2022-10-03T13:16:30.178Z,4.72
2022-10-03T13:19:27.677Z,4.90
2022-10-03T13:22:19.644Z,4.22
2022-10-03T13:25:22.742Z,4.40
2022-10-03T13:28:46.578Z,4.88
2022-10-03T13:31:35.235Z,4.25
2022-10-03T13:34:28.303Z,4.22
2022-10-03T13:37:26.024Z,4.43
2022-10-03T13:40:18.896Z,3.78
2022-10-03T13:43:13.786Z,4.40
2022-10-03T13:46:00.991Z,4.50
2022-10-03T13:49:02.101Z,3.67
2022-10-03T13:51:57.126Z,3.97
2022-10-03T13:54:58.171Z,4.35
2022-10-03T13:58:08.622Z,3.88
2022-10-03T14:01:21.762Z,4.35
2022-10-03T14:04:26.067Z,4.00
2022-10-03T14:07:45.540Z,3.90
2022-10-03T14:10:37.277Z,3.70
2022-10-03T14:13:52.603Z,4.00
2022-10-03T14:16:50.203Z,4.10
2022-10-03T14:20:02.559Z,3.72
2022-10-03T14:23:13.370Z,3.22
2022-10-03T14:26:18.834Z,3.95
2022-10-03T14:29:10.723Z,3.83
2022-10-03T14:32:28.159Z,3.65
2022-10-03T14:36:07.322Z,3.60
2022-10-03T14:39:16.329Z,4.38
2022-10-03T14:42:04.962Z,3.72
2022-10-03T14:44:56.803Z,3.85
2022-10-03T14:47:53.948Z,4.63
2022-10-03T14:50:42.007Z,3.92
2022-10-03T14:53:29.823Z,4.40
2022-10-03T14:56:20.839Z,4.03
2022-10-03T14:59:16.715Z,4.53
2022-10-03T15:02:30.246Z,4.00
2022-10-03T15:05:34.562Z,4.22
2022-10-03T15:08:21.431Z,4.22
2022-10-03T15:11:10.137Z,4.25
2022-10-03T15:14:04.995Z,4.15
2022-10-03T15:16:56.190Z,4.80
2022-10-03T15:19:47.953Z,4.10
2022-10-03T15:22:43.047Z,4.57
2022-10-03T15:25:33.687Z,4.25
2022-10-03T15:28:39.859Z,4.47
2022-10-03T15:31:36.429Z,4.47
2022-10-03T15:34:28.618Z,4.88
2022-10-03T15:37:22.232Z,5.22
2022-10-03T15:40:33.518Z,4.65
2022-10-03T15:43:36.952Z,4.43
2022-10-03T15:46:43.421Z,5.43
2022-10-03T15:49:57.023Z,5.10
2022-10-03T15:52:48.110Z,4.72
2022-10-03T15:55:49.884Z,4.57
2022-10-03T15:58:38.173Z,4.32
2022-10-03T16:01:27.798Z,4.95
2022-10-03T16:07:10.627Z,4.90
2022-10-03T16:10:23.876Z,4.55
2022-10-03T16:13:51.777Z,4.68
2022-10-03T16:16:47.888Z,4.95
2022-10-03T16:19:42.629Z,5.55
2022-10-03T16:22:39.894Z,5.10
2022-10-03T16:25:59.910Z,4.93
2022-10-03T16:28:52.819Z,5.32
2022-10-03T16:31:51.379Z,5.07
2022-10-03T16:34:41.930Z,5.78
2022-10-03T16:37:30.627Z,5.45
2022-10-03T16:40:22.251Z,5.57
2022-10-03T16:43:09.794Z,5.75
2022-10-03T16:45:56.889Z,5.93
2022-10-03T16:49:03.077Z,5.60
2022-10-03T16:52:09.931Z,5.80
2022-10-03T16:55:02.820Z,5.88
2022-10-03T16:58:17.657Z,5.75
2022-10-03T17:01:27.890Z,6.32
2022-10-03T17:04:31.165Z,5.72
2022-10-03T17:07:21.394Z,6.32
2022-10-03T17:10:24.675Z,6.60
2022-10-03T17:13:24.065Z,6.78
2022-10-03T17:16:18.620Z,6.45
2022-10-03T17:19:16.856Z,6.82
2022-10-03T17:22:17.720Z,8.13
2022-10-03T17:25:34.352Z,7.60
2022-10-03T17:28:37.240Z,8.05
2022-10-03T17:31:36.865Z,8.38
2022-10-03T17:34:28.943Z,8.50
2022-10-03T17:37:36.919Z,8.15
2022-10-03T17:41:18.406Z,7.38
2022-10-03T17:44:19.318Z,6.80
2022-10-03T17:47:17.582Z,7.18
2022-10-03T17:50:10.723Z,7.45
2022-10-03T17:52:57.488Z,7.25
2022-10-03T17:55:45.794Z,7.10
2022-10-03T17:58:33.254Z,7.55
2022-10-03T18:01:58.334Z,8.40
2022-10-03T18:04:56.273Z,8.10
2022-10-03T18:07:43.354Z,7.18
2022-10-03T18:10:37.330Z,6.90
2022-10-03T18:13:42.343Z,7.03
2022-10-03T18:16:37.086Z,6.57
2022-10-03T18:19:49.482Z,7.28
2022-10-03T18:22:43.455Z,6.10
2022-10-03T18:26:21.075Z,6.72
2022-10-03T18:29:13.359Z,7.07
2022-10-03T18:32:14.417Z,7.07
2022-10-03T18:35:29.258Z,7.05
2022-10-03T18:38:27.934Z,6.95
2022-10-03T18:41:15.331Z,7.00
2022-10-03T18:44:02.309Z,7.10
2022-10-03T18:46:53.119Z,7.15
2022-10-03T18:49:43.332Z,7.50
2022-10-03T18:52:49.661Z,7.65
2022-10-03T18:55:42.915Z,7.10
2022-10-03T18:58:37.150Z,7.25
2022-10-03T19:01:46.217Z,7.50
2022-10-03T19:04:45.728Z,7.78
2022-10-03T19:07:37.696Z,7.57
2022-10-03T19:10:34.110Z,7.65
2022-10-03T19:13:36.297Z,7.65
2022-10-03T19:16:46.497Z,7.40
2022-10-03T19:19:44.447Z,7.68
2022-10-03T19:22:42.284Z,7.60
2022-10-03T19:25:29.991Z,8.15
2022-10-03T19:28:34.083Z,8.70
2022-10-03T19:31:39.135Z,9.60
2022-10-03T19:34:39.099Z,11.20
2022-10-03T19:38:00.785Z,13.10
2022-10-03T19:41:24.591Z,9.07
2022-10-03T19:44:18.761Z,8.27
2022-10-03T19:47:16.562Z,9.00
2022-10-03T19:50:16.407Z,7.68
2022-10-03T19:53:14.877Z,8.68
2022-10-03T19:56:03.937Z,8.48
2022-10-03T19:59:06.365Z,8.40
2022-10-03T20:01:51.790Z,7.95
2022-10-03T20:04:37.739Z,8.48
2022-10-03T20:07:55.795Z,8.45
2022-10-03T20:10:43.670Z,8.32
2022-10-03T20:13:29.435Z,7.63
2022-10-03T20:16:22.497Z,7.50
2022-10-03T20:19:15.730Z,7.40
2022-10-03T20:22:04.121Z,7.25
2022-10-03T20:24:50.008Z,7.90
2022-10-03T20:27:47.372Z,7.13
2022-10-03T20:30:36.141Z,7.35
2022-10-03T20:33:34.723Z,7.90
2022-10-03T20:36:23.062Z,7.43
2022-10-03T20:39:23.221Z,7.10
2022-10-03T20:42:26.349Z,7.35
2022-10-03T20:45:24.994Z,7.60
2022-10-03T20:48:25.293Z,7.60
2022-10-03T20:51:22.967Z,7.25
2022-10-03T20:54:18.044Z,7.43
2022-10-03T20:57:23.415Z,7.10
2022-10-03T21:00:22.398Z,6.78
2022-10-03T21:03:18.964Z,7.57
2022-10-03T21:06:24.939Z,7.30
2022-10-03T21:09:19.698Z,7.55
2022-10-03T21:12:06.847Z,7.50
2022-10-03T21:15:00.132Z,7.45
2022-10-03T21:17:46.656Z,7.22
2022-10-03T21:20:40.695Z,7.53
2022-10-03T21:23:27.604Z,6.82
2022-10-03T21:26:13.818Z,7.05
2022-10-03T21:29:33.307Z,6.90
2022-10-03T21:32:30.989Z,7.07
2022-10-03T21:35:46.997Z,7.22
2022-10-03T21:38:34.898Z,7.40
2022-10-03T21:41:31.895Z,6.88
2022-10-03T21:44:44.300Z,7.30
2022-10-03T21:47:38.735Z,6.57
2022-10-03T21:50:31.489Z,7.35
2022-10-03T21:53:28.855Z,6.70
2022-10-03T21:56:41.463Z,6.80
2022-10-03T21:59:38.204Z,6.10
2022-10-03T22:02:55.254Z,6.93
2022-10-03T22:05:54.977Z,6.60
2022-10-03T22:08:43.794Z,6.50
2022-10-03T22:11:53.297Z,7.28
2022-10-03T22:15:09.059Z,6.43
2022-10-03T22:18:02.531Z,6.15
2022-10-03T22:21:01.244Z,6.55
2022-10-03T22:24:02.927Z,6.10
2022-10-03T22:26:58.935Z,7.05
2022-10-03T22:29:58.657Z,6.68
2022-10-03T22:33:00.091Z,6.50
2022-10-03T22:35:55.695Z,6.47
2022-10-03T22:38:41.418Z,6.78
2022-10-03T22:41:30.389Z,6.72
2022-10-03T22:44:19.107Z,6.15
2022-10-03T22:47:30.557Z,5.93
2022-10-03T22:50:21.376Z,6.53
2022-10-03T22:53:08.771Z,7.00
2022-10-03T22:55:58.944Z,6.07
2022-10-03T22:58:44.494Z,6.60
2022-10-03T23:01:31.108Z,6.03
2022-10-03T23:04:27.382Z,6.40
2022-10-03T23:07:28.284Z,6.40
2022-10-03T23:10:29.544Z,6.00
2022-10-03T23:13:39.822Z,5.70
2022-10-03T23:16:56.452Z,5.80
2022-10-03T23:19:59.547Z,5.78
2022-10-03T23:22:52.224Z,5.72
2022-10-03T23:26:11.587Z,6.38
2022-10-03T23:29:06.336Z,6.32
2022-10-03T23:31:53.406Z,6.90
2022-10-03T23:34:42.110Z,6.07
2022-10-03T23:37:39.873Z,6.88
2022-10-03T23:40:44.355Z,5.90
2022-10-03T23:43:29.639Z,6.38
2022-10-03T23:46:22.470Z,5.90
2022-10-03T23:49:12.400Z,5.75
2022-10-03T23:51:59.172Z,5.90
2022-10-03T23:54:47.270Z,6.63
2022-10-03T23:57:40.449Z,6.40
